createdAt,value
2023-04-06T00:00:56.170Z,99552.35
2023-04-06T00:03:25.654Z,99552.89
2023-04-06T00:05:55.137Z,99554.70
2023-04-06T00:08:24.797Z,99556.83
2023-04-06T00:10:53.329Z,99557.83
2023-04-06T00:13:21.989Z,99559.46
2023-04-06T00:15:50.460Z,99557.84
2023-04-06T00:18:18.669Z,99560.48
2023-04-06T00:20:47.326Z,99565.54
2023-04-06T00:23:15.718Z,99564.40
2023-04-06T00:25:44.876Z,99563.29
2023-04-06T00:28:14.205Z,99562.91
2023-04-06T00:30:42.881Z,99565.11
2023-04-06T00:33:11.848Z,99562.27
2023-04-06T00:35:40.705Z,99565.52
2023-04-06T00:38:09.082Z,99567.35
2023-04-06T00:40:37.811Z,99570.19
2023-04-06T00:43:10.504Z,99567.58
2023-04-06T00:45:40.687Z,99575.93
2023-04-06T00:48:10.550Z,99571.35
2023-04-06T00:50:40.767Z,99569.46
2023-04-06T00:53:09.067Z,99572.53
2023-04-06T00:55:40.109Z,99579.98
2023-04-06T00:58:08.979Z,99581.20
2023-04-06T01:00:45.722Z,99581.71
2023-04-06T01:03:19.366Z,99582.12
2023-04-06T01:05:49.721Z,99583.33
2023-04-06T01:08:23.859Z,99579.98
2023-04-06T01:10:55.337Z,99580.92
2023-04-06T01:13:29.489Z,99577.85
2023-04-06T01:16:04.321Z,99573.77
2023-04-06T01:18:40.038Z,99571.23
2023-04-06T01:21:20.425Z,99569.68
2023-04-06T01:24:06.250Z,99572.77
2023-04-06T01:26:45.688Z,99574.06
2023-04-06T01:29:17.830Z,99572.86
2023-04-06T01:31:46.439Z,99570.51
2023-04-06T01:34:15.153Z,99576.40
2023-04-06T01:36:43.737Z,99578.40
2023-04-06T01:39:22.859Z,99578.47
2023-04-06T01:41:51.260Z,99578.25
2023-04-06T01:44:20.277Z,99578.33
2023-04-06T01:46:52.714Z,99578.84
2023-04-06T01:49:21.413Z,99580.02
2023-04-06T01:51:55.576Z,99580.36
2023-04-06T01:54:24.897Z,99583.70
2023-04-06T01:57:12.034Z,99590.56
2023-04-06T01:59:48.716Z,99591.22
2023-04-06T02:02:23.218Z,99596.55
2023-04-06T02:05:01.557Z,99589.48
2023-04-06T02:07:31.426Z,99597.15
2023-04-06T02:10:00.501Z,99596.39
2023-04-06T02:12:36.616Z,99599.92
2023-04-06T02:15:08.129Z,99602.56
2023-04-06T02:17:36.813Z,99602.73
2023-04-06T02:20:06.689Z,99610.54
2023-04-06T02:22:41.699Z,99610.35
2023-04-06T02:25:10.849Z,99606.59
2023-04-06T02:27:39.253Z,99605.38
2023-04-06T02:30:09.610Z,99606.61
2023-04-06T02:32:38.652Z,99606.92
2023-04-06T02:35:07.682Z,99605.52
2023-04-06T02:37:36.408Z,99605.52
2023-04-06T02:40:05.386Z,99607.99
2023-04-06T02:42:34.490Z,99606.10
2023-04-06T02:45:03.119Z,99604.89
2023-04-06T02:47:34.629Z,99607.08
2023-04-06T02:50:03.349Z,99609.63
2023-04-06T02:52:33.452Z,99610.67
2023-04-06T02:55:02.366Z,99612.05
2023-04-06T02:57:31.987Z,99613.09
2023-04-06T03:00:00.672Z,99615.96
2023-04-06T03:02:42.392Z,99621.98
2023-04-06T03:05:14.744Z,99622.91
2023-04-06T03:07:44.713Z,99619.77
2023-04-06T03:10:21.107Z,99621.02
2023-04-06T03:12:49.750Z,99615.05
2023-04-06T03:15:24.318Z,99614.70
2023-04-06T03:17:58.876Z,99613.37
2023-04-06T03:20:35.015Z,99613.48
2023-04-06T03:23:08.429Z,99617.58
2023-04-06T03:25:41.515Z,99626.39
2023-04-06T03:28:12.110Z,99629.02
2023-04-06T03:30:48.947Z,99631.41
2023-04-06T03:33:19.243Z,99627.13
2023-04-06T03:35:55.549Z,99628.50
2023-04-06T03:38:25.657Z,99631.72
2023-04-06T03:40:55.429Z,99639.39
2023-04-06T03:43:26.344Z,99641.92
2023-04-06T03:45:54.617Z,99643.23
2023-04-06T03:48:23.654Z,99645.92
2023-04-06T03:50:52.052Z,99644.25
2023-04-06T03:53:21.123Z,99644.61
2023-04-06T03:55:52.234Z,99649.06
2023-04-06T03:58:20.654Z,99649.80
2023-04-06T04:00:49.088Z,99650.51
2023-04-06T04:03:18.889Z,99649.90
2023-04-06T04:05:47.758Z,99656.10
2023-04-06T04:08:26.155Z,99653.90
2023-04-06T04:10:54.631Z,99656.42
2023-04-06T04:13:22.992Z,99658.95
2023-04-06T04:15:56.471Z,99664.86
2023-04-06T04:18:28.189Z,99665.39
2023-04-06T04:20:56.672Z,99666.67
2023-04-06T04:23:36.737Z,99667.80
2023-04-06T04:26:09.531Z,99675.48
2023-04-06T04:28:37.932Z,99674.12
2023-04-06T04:31:08.612Z,99673.27
2023-04-06T04:33:37.545Z,99679.05
2023-04-06T04:36:09.911Z,99679.02
2023-04-06T04:38:41.559Z,99678.31
2023-04-06T04:41:10.604Z,99681.23
2023-04-06T04:43:46.922Z,99678.39
2023-04-06T04:46:19.393Z,99677.04
2023-04-06T04:48:47.882Z,99679.13
2023-04-06T04:51:17.426Z,99678.39
2023-04-06T04:54:04.598Z,99681.08
2023-04-06T04:56:39.205Z,99685.81
2023-04-06T04:59:31.011Z,99682.28
2023-04-06T05:02:07.926Z,99680.67
2023-04-06T05:04:43.618Z,99680.58
2023-04-06T05:07:13.773Z,99681.20
2023-04-06T05:09:45.754Z,99681.23
2023-04-06T05:12:15.943Z,99684.04
2023-04-06T05:14:52.736Z,99686.05
2023-04-06T05:17:29.344Z,99686.56
2023-04-06T05:19:58.422Z,99684.05
2023-04-06T05:22:27.363Z,99686.58
2023-04-06T05:25:09.667Z,99680.02
2023-04-06T05:27:39.165Z,99682.36
2023-04-06T05:30:11.543Z,99682.80
2023-04-06T05:32:45.854Z,99683.02
2023-04-06T05:35:14.577Z,99683.70
2023-04-06T05:37:47.067Z,99685.50
2023-04-06T05:40:16.623Z,99686.19
2023-04-06T05:42:45.435Z,99687.06
2023-04-06T05:45:18.079Z,99688.96
2023-04-06T05:47:48.514Z,99689.79
2023-04-06T05:50:24.572Z,99695.73
2023-04-06T05:52:53.101Z,99700.98
2023-04-06T05:55:23.656Z,99706.06
2023-04-06T05:57:57.414Z,99704.84
2023-04-06T06:00:27.425Z,99710.52
2023-04-06T06:03:20.716Z,99716.13
2023-04-06T06:05:53.243Z,99716.50
2023-04-06T06:08:27.590Z,99718.58
2023-04-06T06:10:57.920Z,99719.48
2023-04-06T06:13:27.190Z,99723.85
2023-04-06T06:15:59.378Z,99724.05
2023-04-06T06:18:28.140Z,99724.16
2023-04-06T06:20:58.107Z,99724.80
2023-04-06T06:23:28.142Z,99727.04
2023-04-06T06:25:59.123Z,99733.67
2023-04-06T06:28:28.149Z,99737.15
2023-04-06T06:30:58.128Z,99741.00
2023-04-06T06:33:27.982Z,99741.64
2023-04-06T06:35:57.689Z,99744.26
2023-04-06T06:38:26.467Z,99747.67
2023-04-06T06:40:58.421Z,99751.90
2023-04-06T06:43:28.914Z,99750.62
2023-04-06T06:46:01.941Z,99751.77
2023-04-06T06:48:33.242Z,99757.66
2023-04-06T06:51:01.699Z,99762.80
2023-04-06T06:53:30.278Z,99765.27
2023-04-06T06:55:58.892Z,99766.05
2023-04-06T06:58:28.992Z,99772.91
2023-04-06T07:01:00.049Z,99777.00
2023-04-06T07:03:29.490Z,99776.52
2023-04-06T07:05:57.944Z,99777.52
2023-04-06T07:08:26.760Z,99783.59
2023-04-06T07:10:57.690Z,99785.37
2023-04-06T07:13:32.046Z,99790.75
2023-04-06T07:16:02.066Z,99788.88
2023-04-06T07:18:31.549Z,99793.58
2023-04-06T07:21:01.345Z,99796.35
2023-04-06T07:23:30.210Z,99799.56
2023-04-06T07:25:59.047Z,99801.69
2023-04-06T07:28:28.476Z,99803.75
2023-04-06T07:30:57.952Z,99806.40
2023-04-06T07:33:32.596Z,99804.42
2023-04-06T07:36:01.071Z,99807.53
2023-04-06T07:38:30.545Z,99808.73
2023-04-06T07:40:58.859Z,99813.77
2023-04-06T07:43:29.528Z,99816.52
2023-04-06T07:45:58.600Z,99819.07
2023-04-06T07:48:28.807Z,99819.66
2023-04-06T07:51:05.267Z,99822.16
2023-04-06T07:53:35.004Z,99824.91
2023-04-06T07:56:03.565Z,99825.35
2023-04-06T07:58:31.950Z,99825.80
2023-04-06T08:01:05.425Z,99828.60
2023-04-06T08:03:36.495Z,99828.69
2023-04-06T08:06:05.538Z,99829.70
2023-04-06T08:08:36.339Z,99826.61
2023-04-06T08:11:05.604Z,99829.30
2023-04-06T08:13:36.548Z,99824.17
2023-04-06T08:16:09.404Z,99823.70
2023-04-06T08:18:38.922Z,99827.71
2023-04-06T08:21:07.276Z,99830.66
2023-04-06T08:23:35.718Z,99830.60
2023-04-06T08:26:04.187Z,99831.96
2023-04-06T08:28:37.081Z,99828.45
2023-04-06T08:31:09.090Z,99830.46
2023-04-06T08:33:40.418Z,99833.42
2023-04-06T08:36:14.202Z,99831.06
2023-04-06T08:38:44.047Z,99839.77
2023-04-06T08:41:14.534Z,99835.15
2023-04-06T08:44:03.926Z,99836.88
2023-04-06T08:46:32.512Z,99838.94
2023-04-06T08:49:03.874Z,99840.10
2023-04-06T08:51:32.659Z,99840.80
2023-04-06T08:54:03.880Z,99843.58
2023-04-06T08:56:32.236Z,99847.16
2023-04-06T08:59:01.485Z,99851.31
2023-04-06T09:01:31.994Z,99852.86
2023-04-06T09:04:02.003Z,99853.07
2023-04-06T09:06:31.933Z,99853.59
2023-04-06T09:09:00.758Z,99860.23
2023-04-06T09:11:29.254Z,99861.55
2023-04-06T09:14:01.411Z,99864.67
2023-04-06T09:16:41.366Z,99863.95
2023-04-06T09:19:11.391Z,99867.05
2023-04-06T09:21:41.034Z,99871.79
2023-04-06T09:24:10.967Z,99875.32
2023-04-06T09:26:49.828Z,99881.88
2023-04-06T09:29:28.085Z,99882.02
2023-04-06T09:32:07.300Z,99883.94
2023-04-06T09:34:36.399Z,99881.45
2023-04-06T09:37:15.782Z,99876.27
2023-04-06T09:39:45.017Z,99884.14
2023-04-06T09:42:26.757Z,99886.60
2023-04-06T09:44:56.559Z,99891.73
2023-04-06T09:47:29.404Z,99889.73
2023-04-06T09:49:59.848Z,99894.02
2023-04-06T09:52:34.950Z,99894.19
2023-04-06T09:55:06.189Z,99894.43
2023-04-06T09:57:56.898Z,99897.71
2023-04-06T10:00:28.411Z,99896.67
2023-04-06T10:03:38.796Z,99904.66
2023-04-06T10:06:13.252Z,99902.68
2023-04-06T10:08:42.666Z,99904.38
2023-04-06T10:11:12.232Z,99905.46
2023-04-06T10:13:43.211Z,99911.55
2023-04-06T10:16:14.395Z,99913.73
2023-04-06T10:18:53.482Z,99914.77
2023-04-06T10:21:27.856Z,99916.33
2023-04-06T10:24:01.570Z,99922.13
2023-04-06T10:26:32.477Z,99915.88
2023-04-06T10:29:05.280Z,99919.34
2023-04-06T10:31:40.685Z,99919.65
2023-04-06T10:34:10.006Z,99921.41
2023-04-06T10:36:44.361Z,99921.45
2023-04-06T10:39:12.663Z,99920.56
2023-04-06T10:41:47.393Z,99922.29
2023-04-06T10:44:23.051Z,99925.89
2023-04-06T10:46:57.667Z,99926.10
2023-04-06T10:49:27.367Z,99927.46
2023-04-06T10:51:57.742Z,99929.75
2023-04-06T10:54:28.327Z,99932.34
2023-04-06T10:56:57.774Z,99933.55
2023-04-06T10:59:27.013Z,99934.69
2023-04-06T11:01:57.159Z,99936.23
2023-04-06T11:04:26.545Z,99937.77
2023-04-06T11:06:59.216Z,99940.13
2023-04-06T11:09:29.537Z,99939.26
2023-04-06T11:11:58.384Z,99941.64
2023-04-06T11:14:27.868Z,99941.13
2023-04-06T11:16:56.502Z,99941.83
2023-04-06T11:19:25.463Z,99941.80
2023-04-06T11:21:54.742Z,99943.83
2023-04-06T11:24:23.988Z,99946.77
2023-04-06T11:26:59.684Z,99948.60
2023-04-06T11:29:31.209Z,99951.46
2023-04-06T11:32:05.783Z,99952.50
2023-04-06T11:34:38.380Z,99953.52
2023-04-06T11:37:10.724Z,99954.30
2023-04-06T11:39:47.938Z,99957.13
2023-04-06T11:42:28.160Z,99956.05
2023-04-06T11:44:58.750Z,99956.90
2023-04-06T11:47:35.963Z,99952.27
2023-04-06T11:50:13.817Z,99956.73
2023-04-06T11:52:43.550Z,99955.35
2023-04-06T11:55:15.445Z,99957.02
2023-04-06T11:57:44.129Z,99954.56
2023-04-06T12:00:13.692Z,99956.60
2023-04-06T12:02:47.617Z,99957.89
2023-04-06T12:05:16.551Z,99958.17
2023-04-06T12:07:47.176Z,99959.91
2023-04-06T12:10:15.601Z,99960.48
2023-04-06T12:12:44.519Z,99961.19
2023-04-06T12:15:16.911Z,99957.50
2023-04-06T12:17:46.659Z,99963.30
2023-04-06T12:20:25.858Z,99964.25
2023-04-06T12:22:55.582Z,99964.52
2023-04-06T12:25:24.058Z,99966.39
2023-04-06T12:27:55.933Z,99967.14
2023-04-06T12:30:24.295Z,99969.26
2023-04-06T12:32:59.899Z,99970.68
2023-04-06T12:35:28.690Z,99971.59
2023-04-06T12:37:57.122Z,99973.73
2023-04-06T12:40:25.572Z,99971.83
2023-04-06T12:42:54.838Z,99974.67
2023-04-06T12:45:28.186Z,99976.60
2023-04-06T12:47:56.887Z,99975.91
2023-04-06T12:50:25.622Z,99977.50
2023-04-06T12:52:57.187Z,99979.20
2023-04-06T12:55:26.313Z,99977.62
2023-04-06T12:57:55.208Z,99978.22
2023-04-06T13:00:24.486Z,99981.07
2023-04-06T13:02:53.962Z,99983.14
2023-04-06T13:05:22.432Z,99982.95
2023-04-06T13:07:51.164Z,99984.63
2023-04-06T13:10:20.029Z,99984.25
2023-04-06T13:12:48.882Z,99985.66
2023-04-06T13:15:18.294Z,99983.52
2023-04-06T13:17:47.220Z,99979.77
2023-04-06T13:20:15.672Z,99980.31
2023-04-06T13:22:44.006Z,99980.98
2023-04-06T13:25:12.366Z,99982.55
2023-04-06T13:27:41.135Z,99986.88
2023-04-06T13:30:10.530Z,99989.89
2023-04-06T13:32:39.114Z,99987.85
2023-04-06T13:35:08.470Z,99991.43
2023-04-06T13:37:37.133Z,99995.02
2023-04-06T13:40:06.204Z,99998.44
2023-04-06T13:42:41.154Z,99997.69
2023-04-06T13:45:16.678Z,100002.61
2023-04-06T13:47:45.650Z,100000.02
2023-04-06T13:50:13.959Z,99999.39
2023-04-06T13:52:43.178Z,99995.91
2023-04-06T13:55:11.540Z,99995.24
2023-04-06T13:57:40.481Z,99999.25
2023-04-06T14:00:11.814Z,99997.88
2023-04-06T14:02:41.701Z,100000.74
2023-04-06T14:05:11.054Z,100003.46
2023-04-06T14:07:39.555Z,100004.28
2023-04-06T14:10:14.898Z,100005.48
2023-04-06T14:12:47.713Z,100002.13
2023-04-06T14:15:16.565Z,100004.17
2023-04-06T14:17:46.057Z,100008.23
2023-04-06T14:20:16.006Z,100005.98
2023-04-06T14:22:44.472Z,100006.61
2023-04-06T14:25:13.785Z,100005.52
2023-04-06T14:27:44.054Z,100006.86
2023-04-06T14:30:13.215Z,100004.13
2023-04-06T14:32:42.051Z,100003.99
2023-04-06T14:35:11.345Z,100000.86
2023-04-06T14:37:39.632Z,100002.98
2023-04-06T14:40:08.628Z,100005.65
2023-04-06T14:42:37.916Z,100005.29
2023-04-06T14:45:06.967Z,100007.30
2023-04-06T14:47:36.597Z,100011.40
2023-04-06T14:50:06.797Z,100012.81
2023-04-06T14:52:36.097Z,100014.83
2023-04-06T14:55:06.024Z,100018.98
2023-04-06T14:57:35.073Z,100019.84
2023-04-06T15:00:04.631Z,100022.98
2023-04-06T15:02:34.941Z,100025.98
2023-04-06T15:05:04.637Z,100027.60
2023-04-06T15:07:33.298Z,100026.30
2023-04-06T15:10:01.919Z,100022.58
2023-04-06T15:12:31.627Z,100022.52
2023-04-06T15:15:02.284Z,100024.80
2023-04-06T15:17:31.451Z,100027.94
2023-04-06T15:20:02.592Z,100026.73
2023-04-06T15:22:31.286Z,100029.91
2023-04-06T15:24:59.950Z,100031.77
2023-04-06T15:27:29.190Z,100027.30
2023-04-06T15:29:59.562Z,100020.98
2023-04-06T15:32:28.042Z,100013.73
2023-04-06T15:35:00.848Z,100018.34
2023-04-06T15:37:29.838Z,100030.70
2023-04-06T15:40:01.589Z,100035.37
2023-04-06T15:42:30.708Z,100034.98
2023-04-06T15:44:59.140Z,100037.50
2023-04-06T15:47:27.482Z,100039.72
2023-04-06T15:49:56.075Z,100038.89
2023-04-06T15:52:25.460Z,100031.42
2023-04-06T15:54:53.841Z,100036.28
2023-04-06T15:57:22.723Z,100030.80
2023-04-06T15:59:52.263Z,100031.87
2023-04-06T16:02:24.050Z,100028.81
2023-04-06T16:04:56.715Z,100028.92
2023-04-06T16:07:25.552Z,100029.16
2023-04-06T16:09:55.103Z,100026.75
2023-04-06T16:12:23.553Z,100028.04
2023-04-06T16:14:53.061Z,100035.33
2023-04-06T16:17:21.697Z,100040.39
2023-04-06T16:19:50.173Z,100043.08
2023-04-06T16:22:21.927Z,100046.40
2023-04-06T16:24:50.653Z,100053.91
2023-04-06T16:27:19.075Z,100059.25
2023-04-06T16:29:47.500Z,100064.04
2023-04-06T16:32:16.068Z,100073.27
2023-04-06T16:34:44.425Z,100069.38
2023-04-06T16:37:13.411Z,100083.23
2023-04-06T16:39:42.176Z,100074.73
2023-04-06T16:42:11.065Z,100084.13
2023-04-06T16:44:39.375Z,100077.24
2023-04-06T16:47:07.870Z,100085.05
2023-04-06T16:49:36.510Z,100085.38
2023-04-06T16:52:06.487Z,100085.05
2023-04-06T16:54:35.510Z,100087.11
2023-04-06T16:57:06.458Z,100081.96
2023-04-06T16:59:35.564Z,100082.80
2023-04-06T17:02:04.742Z,100075.44
2023-04-06T17:04:34.463Z,100065.59
2023-04-06T17:07:03.188Z,100057.20
2023-04-06T17:12:06.820Z,100053.98
2023-04-06T17:14:35.581Z,100063.29
2023-04-06T17:17:04.120Z,100091.58
2023-04-06T17:19:37.354Z,100115.50
2023-04-06T17:22:05.797Z,100120.19
2023-04-06T17:24:34.431Z,100129.08
2023-04-06T17:27:03.488Z,100140.61
2023-04-06T17:29:36.400Z,100146.98
2023-04-06T17:32:04.895Z,100146.77
2023-04-06T17:34:34.570Z,100152.02
2023-04-06T17:37:02.925Z,100156.98
2023-04-06T17:39:31.497Z,100152.70
2023-04-06T17:42:00.277Z,100147.04
2023-04-06T17:44:28.543Z,100145.77
2023-04-06T17:46:57.213Z,100146.84
2023-04-06T17:49:25.878Z,100140.28
2023-04-06T17:51:55.027Z,100136.30
2023-04-06T17:54:23.481Z,100131.95
2023-04-06T17:56:53.685Z,100129.90
2023-04-06T17:59:22.383Z,100128.02
2023-04-06T18:01:51.520Z,100120.21
2023-04-06T18:04:20.105Z,100110.51
2023-04-06T18:06:48.584Z,100113.29
2023-04-06T18:09:18.924Z,100122.42
2023-04-06T18:11:48.840Z,100139.50
2023-04-06T18:14:17.430Z,100144.69
2023-04-06T18:16:51.149Z,100145.70
2023-04-06T18:19:19.477Z,100146.84
2023-04-06T18:21:48.207Z,100139.95
2023-04-06T18:24:27.292Z,100143.49
2023-04-06T18:27:01.606Z,100146.30
2023-04-06T18:29:30.152Z,100154.79
2023-04-06T18:31:58.437Z,100154.17
2023-04-06T18:34:26.735Z,100145.62
2023-04-06T18:36:55.712Z,100151.20
2023-04-06T18:39:24.230Z,100153.04
2023-04-06T18:41:53.758Z,100151.34
2023-04-06T18:44:22.148Z,100154.98
2023-04-06T18:46:52.704Z,100151.77
2023-04-06T18:49:24.032Z,100153.36
2023-04-06T18:51:54.460Z,100154.45
2023-04-06T18:54:22.820Z,100155.52
2023-04-06T18:56:52.441Z,100155.67
2023-04-06T18:59:20.813Z,100149.55
2023-04-06T19:01:54.305Z,100150.19
2023-04-06T19:04:23.923Z,100150.72
2023-04-06T19:06:53.029Z,100151.89
2023-04-06T19:09:30.883Z,100145.63
2023-04-06T19:12:02.061Z,100140.78
2023-04-06T19:14:32.994Z,100148.16
2023-04-06T19:17:10.610Z,100149.61
2023-04-06T19:19:40.434Z,100154.98
2023-04-06T19:22:08.863Z,100156.27
2023-04-06T19:24:38.108Z,100155.13
2023-04-06T19:27:07.027Z,100153.26
2023-04-06T19:29:38.728Z,100149.54
2023-04-06T19:32:11.025Z,100149.52
2023-04-06T19:34:39.717Z,100147.95
2023-04-06T19:37:08.102Z,100145.91
2023-04-06T19:39:37.490Z,100140.25
2023-04-06T19:42:07.542Z,100137.17
2023-04-06T19:44:36.253Z,100138.21
2023-04-06T19:47:04.743Z,100143.80
2023-04-06T19:49:33.683Z,100143.06
2023-04-06T19:52:02.364Z,100144.44
2023-04-06T19:54:31.148Z,100142.23
2023-04-06T19:56:59.439Z,100147.66
2023-04-06T19:59:28.036Z,100149.23
2023-04-06T20:01:56.645Z,100150.04
2023-04-06T20:04:25.314Z,100146.27
2023-04-06T20:06:54.802Z,100148.10
2023-04-06T20:09:24.600Z,100150.40
2023-04-06T20:11:57.349Z,100148.97
2023-04-06T20:14:26.280Z,100149.61
2023-04-06T20:16:55.332Z,100145.65
2023-04-06T20:19:25.721Z,100145.79
2023-04-06T20:21:54.942Z,100149.23
2023-04-06T20:24:25.438Z,100148.36
2023-04-06T20:26:54.030Z,100150.23
2023-04-06T20:29:22.786Z,100148.22
2023-04-06T20:31:51.103Z,100152.93
2023-04-06T20:34:19.959Z,100155.84
2023-04-06T20:36:48.670Z,100159.69
2023-04-06T20:39:17.653Z,100153.61
2023-04-06T20:41:45.912Z,100150.29
2023-04-06T20:44:21.639Z,100147.89
2023-04-06T20:46:50.362Z,100147.27
2023-04-06T20:49:18.840Z,100149.48
2023-04-06T20:51:47.369Z,100150.98
2023-04-06T20:54:16.989Z,100157.27
2023-04-06T20:56:49.850Z,100158.23
2023-04-06T20:59:18.830Z,100163.47
2023-04-06T21:01:47.151Z,100166.34
2023-04-06T21:04:16.162Z,100171.63
2023-04-06T21:06:45.074Z,100174.46
2023-04-06T21:09:15.714Z,100174.56
2023-04-06T21:11:45.389Z,100169.38
2023-04-06T21:14:13.732Z,100168.48
2023-04-06T21:16:44.465Z,100171.68
2023-04-06T21:19:13.003Z,100173.29
2023-04-06T21:21:41.431Z,100171.23
2023-04-06T21:24:12.178Z,100169.55
2023-04-06T21:26:41.445Z,100169.29
2023-04-06T21:29:09.752Z,100173.63
2023-04-06T21:31:42.351Z,100177.15
2023-04-06T21:34:13.330Z,100171.23
2023-04-06T21:36:42.378Z,100169.90
2023-04-06T21:39:11.076Z,100171.16
2023-04-06T21:41:40.851Z,100169.19
2023-04-06T21:44:09.694Z,100168.39
2023-04-06T21:46:38.691Z,100176.64
2023-04-06T21:49:07.471Z,100191.60
2023-04-06T21:51:36.106Z,100197.02
2023-04-06T21:54:04.954Z,100202.85
2023-04-06T21:56:33.855Z,100210.51
2023-04-06T21:59:02.731Z,100228.05
2023-04-06T22:01:31.302Z,100241.17
2023-04-06T22:04:01.595Z,100235.05
2023-04-06T22:06:32.197Z,100221.39
2023-04-06T22:09:01.380Z,100210.67
2023-04-06T22:11:30.037Z,100196.80
2023-04-06T22:14:00.787Z,100194.83
2023-04-06T22:16:29.803Z,100186.02
2023-04-06T22:18:58.686Z,100176.27
2023-04-06T22:21:27.565Z,100163.48
2023-04-06T22:23:55.992Z,100147.77
2023-04-06T22:26:24.982Z,100140.04
2023-04-06T22:28:53.639Z,100142.14
2023-04-06T22:31:22.050Z,100139.17
2023-04-06T22:33:51.219Z,100150.52
2023-04-06T22:36:19.791Z,100152.69
2023-04-06T22:38:49.535Z,100152.48
2023-04-06T22:41:17.816Z,100148.20
2023-04-06T22:43:46.199Z,100147.94
2023-04-06T22:46:15.099Z,100145.81
2023-04-06T22:48:43.511Z,100150.26
2023-04-06T22:51:11.941Z,100156.61
2023-04-06T22:53:40.534Z,100158.21
2023-04-06T22:56:09.492Z,100152.56
2023-04-06T22:58:38.682Z,100153.14
2023-04-06T23:01:09.109Z,100158.67
2023-04-06T23:03:37.701Z,100159.52
2023-04-06T23:06:06.470Z,100156.98
2023-04-06T23:08:35.052Z,100161.63
2023-04-06T23:11:04.361Z,100163.66
2023-04-06T23:13:36.535Z,100161.82
2023-04-06T23:16:05.291Z,100162.42
2023-04-06T23:18:35.785Z,100161.93
2023-04-06T23:21:07.894Z,100159.59
2023-04-06T23:23:38.584Z,100155.69
2023-04-06T23:26:06.920Z,100153.01
2023-04-06T23:28:35.206Z,100150.58
2023-04-06T23:31:05.367Z,100146.36
2023-04-06T23:33:34.966Z,100146.55
2023-04-06T23:36:03.320Z,100146.88
2023-04-06T23:38:31.929Z,100146.61
2023-04-06T23:41:00.178Z,100144.27
2023-04-06T23:43:28.606Z,100142.73
2023-04-06T23:45:57.204Z,100144.77
2023-04-06T23:48:26.268Z,100144.48
2023-04-06T23:50:54.761Z,100141.88
2023-04-06T23:53:24.770Z,100143.77
2023-04-06T23:55:53.616Z,100144.22
2023-04-06T23:58:21.905Z,100142.48
